Terminal Aerodrome Forecast
Issued by NWS

Home | Current Version | Previous Version | Text Only | Print | Product List | Glossary On
Versions: 1 2 3 4 5 6 7 8 9 10 11 12 13 14
000
FTUS42 TJSJ 271740
TAFNCM
TAF
TNCM 271740Z 2718/2818 VRB06KT P6SM SCT018
     FM272200 09005KT P6SM VCSH FEW025
     FM281300 14010KT P6SM SCT025=

USA.gov is the U.S. government's official web portal to all federal, state and local government web resources and services.